Eagle City, Oklahoma
Current Conditions -  °F | °C
As of 2:55 PM on Thursday 18 Dec 2014 (Local Time) from KJWG Reporting Station
Overcast Overcast  
Wind Chill: 35°   Ceiling: 900
Heat Index: 40°   Visibility: 10mi
Dew Point: 40°   Wind: 8mph
Humidity: 100%   Direction: 10°N
Pressure: 30.14"   Gusts: NA
Location:  35.9036°N, 98.7155°W
Report Text: KJWG 182055Z AUTO 01007KT 10SM OVC009 05/05 A3014 RMK AO2 T00460046 TSNO
Loading
Personal Weather Stations






























Interactive Weather Map New forecast layout! Learn more

10-Day Weather Forecast

Advertisements
Track Severe Weather on mobile